KBUY

Burlington-Alamance Regional Airport

Burlington, North Carolina, USA
METAR KBUY 252054Z AUTO VRB03KT 10SM CLR 29/17 A3014 RMK AO2 SLP199 T02890167 56018
Observed Flight Rules
Sep-25 @ 20:54 UTC (2 hours ago) Visual Flight Rules
Wind Visibility Clouds
Variable at 3 knots 10 miles
  • Clear skies
Temperatures Readings
Current 29°C / 84°F
Dewpoint 17°C / 63°F
Humidity 48%
Altimeter 30.14" Hg
Pressure 1019.9 hPa
Elevation 180
METAR KBUY 252054Z AUTO VRB03KT 10SM CLR 29/17 A3014 RMK AO2 SLP199 T02890167 56018
Observed Flight Rules
Sep-25 @ 20:54 UTC
(2 hours ago)
VFR
Wind Visibility
Variable at 3 knots 10 miles
Clouds
  • Clear skies
Temperature Dewpoint
29°C / 84°F 17°C / 63°F
Humidity Altimeter Pressure
48% 30.14" Hg 1019.9 hPa